Pooler, Georgia
Current Conditions -  °F | °C
As of 8:53 AM on Sunday 25 Jan 2015 (Local Time) from KSAV Reporting Station
Scattered Clouds Scattered Clouds  
Wind Chill: 38°   Ceiling: Unl
Heat Index: 42°   Visibility: 10mi
Dew Point: 32°   Wind: 7mph
Humidity: 67%   Direction: 280°W
Pressure: 30.03"   Gusts: NA
Location:  32.12°N, 81.25°W
Report Text: KSAV 251353Z 28006KT 10SM SCT200 06/00 A3003 RMK AO2 SLP168 T00560000
Loading
Personal Weather Stations






























Interactive Weather Map New forecast layout! Learn more

10-Day Weather Forecast

Advertisements
Track Severe Weather on mobile